createdAt,value
2019-02-20T00:01:48.841Z,87.40
2019-02-20T00:04:18.521Z,87.50
2019-02-20T00:06:48.767Z,88.20
2019-02-20T00:09:17.342Z,87.90
2019-02-20T00:11:46.485Z,88.00
2019-02-20T00:14:16.416Z,87.90
2019-02-20T00:16:44.950Z,88.10
2019-02-20T00:19:14.852Z,88.10
2019-02-20T00:21:45.276Z,87.40
2019-02-20T00:24:13.864Z,87.00
2019-02-20T00:26:45.104Z,87.90
2019-02-20T00:29:15.708Z,87.60
2019-02-20T00:31:44.335Z,87.20
2019-02-20T00:34:12.924Z,87.40
2019-02-20T00:36:41.484Z,87.00
2019-02-20T00:39:11.210Z,86.80
2019-02-20T00:41:39.816Z,87.70
2019-02-20T00:44:12.660Z,87.60
2019-02-20T00:46:44.102Z,88.10
2019-02-20T00:49:22.182Z,88.20
2019-02-20T00:52:28.532Z,88.10
2019-02-20T00:54:58.125Z,87.00
2019-02-20T00:57:26.688Z,87.70
2019-02-20T00:59:56.921Z,88.10
2019-02-20T01:02:26.772Z,88.40
2019-02-20T01:04:57.240Z,88.50
2019-02-20T01:07:27.010Z,89.00
2019-02-20T01:09:55.594Z,89.50
2019-02-20T01:12:24.227Z,89.80
2019-02-20T01:14:52.871Z,89.80
2019-02-20T01:17:21.421Z,90.20
2019-02-20T01:19:50.647Z,90.00
2019-02-20T01:22:19.554Z,90.00
2019-02-20T01:24:49.478Z,89.40
2019-02-20T01:27:18.039Z,89.70
2019-02-20T01:29:52.492Z,90.00
2019-02-20T01:32:21.058Z,90.10
2019-02-20T01:34:49.649Z,90.00
2019-02-20T01:37:18.267Z,90.00
2019-02-20T01:39:46.873Z,89.60
2019-02-20T01:42:15.518Z,89.10
2019-02-20T01:44:44.086Z,89.80
2019-02-20T01:47:12.673Z,89.80
2019-02-20T01:49:43.082Z,89.30
2019-02-20T01:52:13.555Z,89.00
2019-02-20T01:54:42.441Z,89.10
2019-02-20T01:57:11.078Z,89.70
2019-02-20T01:59:39.979Z,90.00
2019-02-20T02:02:08.559Z,90.10
2019-02-20T02:04:37.189Z,90.20
2019-02-20T02:07:05.762Z,90.70
2019-02-20T02:09:34.320Z,90.40
2019-02-20T02:12:02.866Z,90.30
2019-02-20T02:14:32.108Z,90.60
2019-02-20T02:17:00.628Z,90.70
2019-02-20T02:19:29.160Z,90.60
2019-02-20T02:21:57.738Z,90.70
2019-02-20T02:24:26.313Z,90.70
2019-02-20T02:26:54.992Z,90.60
2019-02-20T02:29:23.526Z,90.70
2019-02-20T02:31:52.084Z,90.70
2019-02-20T02:34:20.675Z,90.50
2019-02-20T02:36:58.462Z,90.70
2019-02-20T02:39:28.262Z,90.60
2019-02-20T02:41:56.801Z,90.80
2019-02-20T02:44:27.811Z,90.70
2019-02-20T02:47:04.212Z,90.50
2019-02-20T02:49:34.306Z,90.50
2019-02-20T02:52:04.541Z,90.70
2019-02-20T02:54:33.104Z,90.70
2019-02-20T02:57:03.124Z,90.90
2019-02-20T02:59:32.767Z,90.90
2019-02-20T03:02:01.809Z,91.00
2019-02-20T03:04:33.096Z,91.30
2019-02-20T03:07:02.038Z,91.40
2019-02-20T03:09:30.590Z,91.30
2019-02-20T03:11:59.148Z,91.40
2019-02-20T03:14:28.078Z,91.30
2019-02-20T03:16:57.142Z,91.20
2019-02-20T03:19:25.630Z,91.20
2019-02-20T03:22:03.271Z,91.00
2019-02-20T03:24:31.842Z,91.20
2019-02-20T03:27:00.870Z,90.90
2019-02-20T03:29:29.473Z,90.90
2019-02-20T03:31:57.992Z,90.70
2019-02-20T03:34:26.566Z,91.00
2019-02-20T03:36:58.343Z,91.10
2019-02-20T03:39:27.004Z,91.00
2019-02-20T03:41:57.230Z,91.00
2019-02-20T03:44:25.787Z,90.80
2019-02-20T03:46:54.342Z,91.20
2019-02-20T03:49:22.918Z,90.70
2019-02-20T03:51:51.516Z,90.80
2019-02-20T03:54:20.054Z,91.00
2019-02-20T03:56:48.619Z,91.00
2019-02-20T03:59:17.211Z,91.50
2019-02-20T04:01:45.762Z,91.00
2019-02-20T04:04:14.317Z,91.50
2019-02-20T04:06:42.924Z,91.00
2019-02-20T04:09:11.483Z,91.10
2019-02-20T04:11:41.574Z,91.00
2019-02-20T04:14:10.158Z,90.70
2019-02-20T04:16:38.730Z,90.60
2019-02-20T04:19:07.295Z,90.70
2019-02-20T04:21:35.907Z,90.90
2019-02-20T04:24:06.029Z,91.20
2019-02-20T04:26:36.227Z,90.90
2019-02-20T04:29:04.836Z,90.80
2019-02-20T04:31:33.403Z,90.90
2019-02-20T04:34:03.163Z,90.90
2019-02-20T04:36:31.740Z,91.10
2019-02-20T04:39:00.965Z,90.60
2019-02-20T04:41:36.732Z,90.50
2019-02-20T04:44:06.438Z,90.60
2019-02-20T04:46:34.999Z,90.50
2019-02-20T04:49:03.567Z,90.70
2019-02-20T04:51:32.161Z,90.80
2019-02-20T04:54:00.718Z,90.60
2019-02-20T04:56:29.289Z,90.70
2019-02-20T04:58:59.716Z,90.90
2019-02-20T05:01:28.539Z,91.00
2019-02-20T05:03:57.095Z,91.10
2019-02-20T05:06:25.687Z,91.10
2019-02-20T05:08:54.915Z,91.20
2019-02-20T05:11:24.983Z,90.90
2019-02-20T05:13:53.554Z,90.90
2019-02-20T05:16:24.275Z,90.90
2019-02-20T05:18:52.839Z,91.20
2019-02-20T05:21:25.181Z,91.20
2019-02-20T05:23:53.779Z,91.30
2019-02-20T05:26:26.660Z,91.20
2019-02-20T05:28:55.627Z,91.40
2019-02-20T05:31:24.328Z,91.40
2019-02-20T05:33:53.322Z,91.40
2019-02-20T05:36:24.510Z,91.20
2019-02-20T05:38:53.102Z,91.10
2019-02-20T05:41:23.643Z,91.20
2019-02-20T05:43:55.201Z,91.00
2019-02-20T05:46:23.833Z,91.10
2019-02-20T05:48:54.697Z,91.00
2019-02-20T05:51:23.314Z,91.50
2019-02-20T05:54:11.287Z,91.30
2019-02-20T05:56:42.993Z,91.30
2019-02-20T05:59:11.543Z,91.00
2019-02-20T06:01:40.149Z,91.00
2019-02-20T06:04:09.471Z,91.20
2019-02-20T06:06:38.531Z,91.10
2019-02-20T06:09:07.104Z,91.40
2019-02-20T06:11:35.706Z,91.40
2019-02-20T06:14:04.270Z,91.30
2019-02-20T06:16:32.813Z,91.20
2019-02-20T06:19:01.425Z,91.20
2019-02-20T06:21:29.971Z,91.00
2019-02-20T06:23:58.586Z,90.70
2019-02-20T06:26:30.113Z,90.60
2019-02-20T06:29:01.667Z,91.00
2019-02-20T06:31:30.388Z,90.80
2019-02-20T06:34:01.148Z,90.60
2019-02-20T06:36:30.335Z,90.80
2019-02-20T06:38:59.545Z,90.70
2019-02-20T06:41:38.346Z,90.40
2019-02-20T06:43:59.669Z,90.50
2019-02-20T06:46:28.228Z,90.60
2019-02-20T06:48:56.827Z,90.40
2019-02-20T06:51:25.411Z,90.80
2019-02-20T06:53:55.109Z,90.90
2019-02-20T06:56:23.974Z,90.80
2019-02-20T06:58:52.684Z,90.50
2019-02-20T07:01:21.270Z,90.80
2019-02-20T07:03:52.119Z,90.60
2019-02-20T07:06:42.010Z,90.60
2019-02-20T07:09:47.248Z,90.50
2019-02-20T07:12:29.168Z,90.50
2019-02-20T07:15:12.573Z,90.40
2019-02-20T07:17:52.971Z,90.30
2019-02-20T07:20:36.567Z,90.30
2019-02-20T07:23:28.446Z,89.90
2019-02-20T07:26:25.497Z,89.40
2019-02-20T07:29:06.450Z,90.10
2019-02-20T07:31:35.011Z,89.80
2019-02-20T07:34:05.414Z,89.70
2019-02-20T07:36:37.699Z,90.20
2019-02-20T07:39:08.877Z,90.20
2019-02-20T07:41:39.372Z,90.00
2019-02-20T07:44:09.851Z,90.20
2019-02-20T07:46:41.097Z,90.10
2019-02-20T07:49:12.330Z,89.60
2019-02-20T07:51:45.193Z,88.80
2019-02-20T07:54:13.821Z,89.20
2019-02-20T07:56:43.960Z,90.00
2019-02-20T07:59:12.902Z,89.30
2019-02-20T08:01:41.472Z,89.00
2019-02-20T08:04:10.124Z,89.20
2019-02-20T08:06:42.845Z,89.90
2019-02-20T08:09:14.356Z,90.00
2019-02-20T08:11:46.135Z,89.30
2019-02-20T08:14:14.724Z,89.00
2019-02-20T08:16:52.057Z,88.40
2019-02-20T08:19:14.393Z,88.50
2019-02-20T08:21:42.981Z,88.30
2019-02-20T08:24:14.559Z,88.00
2019-02-20T08:26:43.412Z,87.30
2019-02-20T08:29:22.400Z,87.40
2019-02-20T08:31:54.069Z,86.90
2019-02-20T08:34:26.726Z,87.10
2019-02-20T08:36:58.365Z,87.40
2019-02-20T08:39:28.097Z,86.50
2019-02-20T08:42:02.488Z,86.10
2019-02-20T08:44:37.949Z,86.30
2019-02-20T08:47:06.543Z,87.10
2019-02-20T08:49:35.098Z,86.20
2019-02-20T08:52:11.386Z,86.00
2019-02-20T08:54:41.016Z,85.10
2019-02-20T08:57:15.753Z,83.80
2019-02-20T08:59:45.895Z,83.30
2019-02-20T09:02:18.174Z,82.90
2019-02-20T09:08:13.131Z,82.00
2019-02-20T09:10:41.742Z,81.30
2019-02-20T09:13:16.593Z,82.10
2019-02-20T09:15:46.788Z,82.50
2019-02-20T09:18:17.682Z,82.50
2019-02-20T09:20:57.754Z,83.00
2019-02-20T09:23:27.874Z,82.40
2019-02-20T09:25:57.212Z,81.70
2019-02-20T09:28:27.320Z,79.90
2019-02-20T09:30:59.392Z,79.90
2019-02-20T09:33:31.181Z,79.90
2019-02-20T09:36:05.728Z,79.80
2019-02-20T09:38:37.922Z,80.80
2019-02-20T09:41:07.993Z,80.30
2019-02-20T09:43:37.551Z,80.50
2019-02-20T09:46:06.684Z,81.60
2019-02-20T09:48:35.388Z,82.70
2019-02-20T09:51:04.170Z,83.80
2019-02-20T09:53:33.115Z,84.00
2019-02-20T09:56:03.227Z,85.10
2019-02-20T09:58:31.867Z,84.80
2019-02-20T10:01:00.455Z,84.50
2019-02-20T10:03:29.205Z,83.90
2019-02-20T10:05:57.756Z,82.90
2019-02-20T10:08:26.319Z,82.40
2019-02-20T10:10:59.176Z,83.10
2019-02-20T10:13:27.794Z,84.20
2019-02-20T10:15:59.215Z,85.30
2019-02-20T10:18:27.743Z,85.50
2019-02-20T10:20:56.255Z,85.60
2019-02-20T10:23:25.183Z,84.90
2019-02-20T10:26:00.790Z,85.20
2019-02-20T10:28:28.575Z,85.50
2019-02-20T10:30:58.191Z,85.70
2019-02-20T10:33:26.752Z,85.30
2019-02-20T10:35:56.892Z,84.60
2019-02-20T10:38:25.479Z,84.00
2019-02-20T10:40:54.039Z,83.90
2019-02-20T10:43:24.714Z,84.00
2019-02-20T10:45:57.184Z,83.90
2019-02-20T10:48:25.968Z,83.90
2019-02-20T10:50:54.481Z,82.70
2019-02-20T10:53:23.143Z,82.10
2019-02-20T10:55:51.693Z,81.40
2019-02-20T10:58:20.306Z,81.00
2019-02-20T11:00:50.634Z,80.40
2019-02-20T11:03:19.336Z,80.00
2019-02-20T11:05:47.861Z,79.90
2019-02-20T11:08:19.399Z,79.00
2019-02-20T11:10:48.004Z,78.30
2019-02-20T11:13:16.565Z,78.70
2019-02-20T11:15:45.135Z,78.30
2019-02-20T11:18:13.717Z,78.60
2019-02-20T11:20:48.258Z,78.90
2019-02-20T11:23:13.182Z,78.80
2019-02-20T11:25:41.770Z,79.30
2019-02-20T11:28:10.346Z,80.30
2019-02-20T11:30:40.110Z,80.30
2019-02-20T11:33:08.703Z,80.70
2019-02-20T11:35:37.295Z,80.00
2019-02-20T11:38:05.856Z,80.20
2019-02-20T11:40:34.453Z,79.60
2019-02-20T11:43:03.784Z,79.10
2019-02-20T11:45:32.415Z,78.30
2019-02-20T11:48:01.763Z,78.70
2019-02-20T11:50:30.863Z,77.60
2019-02-20T11:52:59.910Z,77.90
2019-02-20T11:55:29.078Z,76.10
2019-02-20T11:58:00.668Z,76.40
2019-02-20T12:00:29.668Z,76.50
2019-02-20T12:02:58.283Z,75.50
2019-02-20T12:05:28.391Z,73.80
2019-02-20T12:07:56.991Z,73.40
2019-02-20T12:10:25.627Z,73.60
2019-02-20T12:12:55.095Z,73.30
2019-02-20T12:15:23.705Z,72.90
2019-02-20T12:17:52.361Z,72.30
2019-02-20T12:20:22.287Z,72.30
2019-02-20T12:22:50.960Z,72.00
2019-02-20T12:25:19.607Z,72.30
2019-02-20T12:27:48.237Z,71.40
2019-02-20T12:30:17.516Z,71.80
2019-02-20T12:32:46.091Z,71.80
2019-02-20T12:35:14.723Z,71.50
2019-02-20T12:38:02.476Z,71.50
2019-02-20T12:40:31.295Z,70.10
2019-02-20T12:42:59.882Z,70.40
2019-02-20T12:45:28.629Z,70.30
2019-02-20T12:47:58.840Z,70.10
2019-02-20T12:50:27.453Z,70.00
2019-02-20T12:52:58.114Z,69.90
2019-02-20T12:55:26.739Z,70.10
2019-02-20T12:57:56.025Z,70.20
2019-02-20T13:00:24.795Z,70.20
2019-02-20T13:02:53.474Z,71.10
2019-02-20T13:05:23.497Z,71.70
2019-02-20T13:07:52.121Z,72.00
2019-02-20T13:10:20.846Z,72.50
2019-02-20T13:12:49.425Z,72.10
2019-02-20T13:15:18.029Z,71.80
2019-02-20T13:17:46.623Z,72.00
2019-02-20T13:20:15.175Z,71.50
2019-02-20T13:22:43.748Z,71.20
2019-02-20T13:25:12.468Z,70.00
2019-02-20T13:27:41.061Z,70.00
2019-02-20T13:30:12.206Z,69.90
2019-02-20T13:32:42.302Z,70.00
2019-02-20T13:35:10.991Z,70.30
2019-02-20T13:37:39.589Z,70.40
2019-02-20T13:40:10.173Z,70.40
2019-02-20T13:42:38.907Z,70.50
2019-02-20T13:45:10.233Z,70.50
2019-02-20T13:47:40.357Z,71.00
2019-02-20T13:50:11.790Z,70.80
2019-02-20T13:52:40.667Z,70.40
2019-02-20T13:55:09.745Z,70.20
2019-02-20T13:57:38.375Z,70.70
2019-02-20T14:00:13.330Z,70.70
2019-02-20T14:02:42.115Z,70.70
2019-02-20T14:05:10.732Z,70.70
2019-02-20T14:07:39.685Z,70.50
2019-02-20T14:10:28.910Z,70.60
2019-02-20T14:12:57.540Z,70.70
2019-02-20T14:15:26.123Z,70.50
2019-02-20T14:17:58.025Z,71.30
2019-02-20T14:20:27.439Z,71.20
2019-02-20T14:22:56.007Z,71.40
2019-02-20T14:25:24.946Z,71.20
2019-02-20T14:27:53.512Z,71.30
2019-02-20T14:30:22.077Z,70.90
2019-02-20T14:32:50.658Z,71.70
2019-02-20T14:35:19.755Z,71.60
2019-02-20T14:37:48.611Z,70.90
2019-02-20T14:40:17.185Z,71.30
2019-02-20T14:42:46.472Z,71.70
2019-02-20T14:45:17.785Z,71.60
2019-02-20T14:47:52.033Z,71.20
2019-02-20T14:50:21.096Z,71.10
2019-02-20T14:52:50.247Z,71.70
2019-02-20T14:55:18.898Z,72.00
2019-02-20T14:57:47.456Z,72.40
2019-02-20T15:00:17.100Z,72.20
2019-02-20T15:02:45.843Z,72.70
2019-02-20T15:05:14.834Z,73.10
2019-02-20T15:07:43.771Z,73.30
2019-02-20T15:10:12.456Z,73.80
2019-02-20T15:12:41.077Z,74.00
2019-02-20T15:15:13.283Z,73.90
2019-02-20T15:17:45.751Z,74.10
2019-02-20T15:20:15.465Z,73.70
2019-02-20T15:22:44.728Z,73.30
2019-02-20T15:25:13.963Z,72.00
2019-02-20T15:27:46.924Z,71.60
2019-02-20T15:30:16.930Z,71.40
2019-02-20T15:32:50.886Z,71.90
2019-02-20T15:35:19.649Z,72.30
2019-02-20T15:37:50.641Z,72.90
2019-02-20T15:40:20.698Z,72.90
2019-02-20T15:42:52.448Z,73.00
2019-02-20T15:45:28.114Z,73.20
2019-02-20T15:48:09.533Z,73.40
2019-02-20T15:50:43.120Z,73.40
2019-02-20T15:53:15.184Z,73.90
2019-02-20T15:55:44.411Z,73.60
2019-02-20T15:58:18.783Z,73.90
2019-02-20T16:00:47.415Z,73.90
2019-02-20T16:03:16.626Z,74.10
2019-02-20T16:05:46.717Z,73.90
2019-02-20T16:08:15.417Z,73.50
2019-02-20T16:10:46.709Z,74.70
2019-02-20T16:13:22.505Z,73.90
2019-02-20T16:15:55.662Z,73.60
2019-02-20T16:18:38.045Z,74.00
2019-02-20T16:21:11.865Z,73.40
2019-02-20T16:23:47.959Z,73.40
2019-02-20T16:26:19.304Z,73.70
2019-02-20T16:28:49.112Z,73.20
2019-02-20T16:31:19.491Z,73.10
2019-02-20T16:33:48.096Z,73.50
2019-02-20T16:36:17.679Z,73.60
2019-02-20T16:38:47.531Z,73.70
2019-02-20T16:41:20.676Z,73.70
2019-02-20T16:43:49.321Z,74.20
2019-02-20T16:46:18.464Z,74.50
2019-02-20T16:48:47.034Z,74.50
2019-02-20T16:51:15.690Z,74.60
2019-02-20T16:53:44.306Z,74.60
2019-02-20T16:56:13.548Z,75.00
2019-02-20T16:58:43.659Z,75.20
2019-02-20T17:01:12.363Z,75.30
2019-02-20T17:03:40.926Z,75.70
2019-02-20T17:06:12.859Z,76.20
2019-02-20T17:08:55.394Z,76.30
2019-02-20T17:11:26.146Z,76.60
2019-02-20T17:13:59.446Z,76.70
2019-02-20T17:16:36.891Z,76.70
2019-02-20T17:19:05.528Z,77.70
2019-02-20T17:21:34.115Z,77.00
2019-02-20T17:24:11.683Z,77.00
2019-02-20T17:26:41.836Z,77.10
2019-02-20T17:29:12.186Z,77.40
2019-02-20T17:31:41.268Z,77.20
2019-02-20T17:34:11.792Z,77.50
2019-02-20T17:36:40.402Z,77.50
2019-02-20T17:39:09.226Z,77.80
2019-02-20T17:41:37.773Z,77.80
2019-02-20T17:44:07.631Z,77.70
2019-02-20T17:46:38.005Z,77.20
2019-02-20T17:49:06.614Z,76.30
2019-02-20T17:51:35.205Z,75.70
2019-02-20T17:54:03.785Z,75.60
2019-02-20T17:56:32.406Z,75.90
2019-02-20T17:59:00.964Z,75.90
2019-02-20T18:01:29.691Z,76.10
2019-02-20T18:03:58.393Z,76.50
2019-02-20T18:06:26.943Z,77.10
2019-02-20T18:08:55.483Z,77.20
2019-02-20T18:11:24.231Z,77.30
2019-02-20T18:13:52.778Z,77.20
2019-02-20T18:16:21.329Z,77.60
2019-02-20T18:18:50.383Z,78.00
2019-02-20T18:21:19.047Z,78.60
2019-02-20T18:23:47.613Z,78.80
2019-02-20T18:26:16.163Z,78.80
2019-02-20T18:28:44.728Z,78.80
2019-02-20T18:31:13.272Z,79.10
2019-02-20T18:33:41.845Z,79.60
2019-02-20T18:36:11.575Z,79.90
2019-02-20T18:38:40.373Z,80.50
2019-02-20T18:41:09.009Z,80.10
2019-02-20T18:43:37.677Z,80.70
2019-02-20T18:46:06.268Z,80.70
2019-02-20T18:48:34.887Z,80.10
2019-02-20T18:51:04.034Z,79.90
2019-02-20T18:53:33.903Z,79.80
2019-02-20T18:56:02.460Z,79.10
2019-02-20T18:58:34.008Z,79.20
2019-02-20T19:01:01.750Z,79.10
2019-02-20T19:03:30.317Z,78.60
2019-02-20T19:05:58.991Z,78.60
2019-02-20T19:08:45.493Z,78.70
2019-02-20T19:11:20.031Z,78.80
2019-02-20T19:14:20.515Z,78.90
2019-02-20T19:17:25.327Z,78.50
2019-02-20T19:20:13.505Z,78.50
2019-02-20T19:23:10.491Z,77.70
2019-02-20T19:25:59.989Z,77.70
2019-02-20T19:28:32.800Z,77.60
2019-02-20T19:31:38.973Z,77.70
2019-02-20T19:34:19.326Z,77.70
2019-02-20T19:37:08.816Z,77.80
2019-02-20T19:39:52.435Z,78.10
2019-02-20T19:42:25.995Z,78.30
2019-02-20T19:45:19.646Z,78.70
2019-02-20T19:47:59.993Z,78.90
2019-02-20T19:50:34.344Z,79.00
2019-02-20T19:53:23.903Z,78.80
2019-02-20T19:56:04.174Z,78.70
2019-02-20T19:58:55.373Z,77.40
2019-02-20T20:01:44.757Z,77.00
2019-02-20T20:04:16.539Z,76.40
2019-02-20T20:07:16.702Z,76.50
2019-02-20T20:09:50.913Z,76.20
2019-02-20T20:12:37.413Z,76.10
2019-02-20T20:15:20.538Z,76.10
2019-02-20T20:18:23.942Z,76.20
2019-02-20T20:21:00.987Z,76.40
2019-02-20T20:24:32.073Z,76.20
2019-02-20T20:27:20.478Z,76.40
2019-02-20T20:30:10.023Z,76.70
2019-02-20T20:33:02.796Z,76.80
2019-02-20T20:36:06.423Z,76.70
2019-02-20T20:38:40.719Z,76.70
2019-02-20T20:41:28.585Z,77.00
2019-02-20T20:44:28.044Z,77.70
2019-02-20T20:47:08.430Z,76.70
2019-02-20T20:49:43.360Z,76.90
2019-02-20T20:52:31.731Z,77.10
2019-02-20T20:55:22.059Z,77.30
2019-02-20T20:57:59.416Z,77.20
2019-02-20T21:00:59.247Z,77.20
2019-02-20T21:03:31.275Z,77.00
2019-02-20T21:06:20.765Z,77.30
2019-02-20T21:08:52.439Z,76.90
2019-02-20T21:11:33.876Z,77.00
2019-02-20T21:14:05.813Z,77.20
2019-02-20T21:16:52.960Z,77.40
2019-02-20T21:19:34.035Z,77.60
2019-02-20T21:22:14.393Z,77.70
2019-02-20T21:24:57.883Z,78.00
2019-02-20T21:27:47.549Z,77.80
2019-02-20T21:30:34.779Z,78.50
2019-02-20T21:33:31.104Z,78.60
2019-02-20T21:36:17.219Z,78.60
2019-02-20T21:38:48.842Z,79.10
2019-02-20T21:41:32.006Z,79.70
2019-02-20T21:44:09.103Z,79.70
2019-02-20T21:46:49.936Z,79.70
2019-02-20T21:49:28.416Z,80.00
2019-02-20T21:52:18.183Z,80.80
2019-02-20T21:55:01.230Z,80.20
2019-02-20T21:57:39.286Z,80.20
2019-02-20T22:00:19.747Z,80.40
2019-02-20T22:02:57.517Z,80.50
2019-02-20T22:05:35.107Z,81.10
2019-02-20T22:08:12.167Z,81.40
2019-02-20T22:10:55.887Z,81.40
2019-02-20T22:13:51.672Z,81.50
2019-02-20T22:16:44.431Z,81.20
2019-02-20T22:19:18.970Z,81.20
2019-02-20T22:22:02.437Z,81.60
2019-02-20T22:24:42.654Z,81.40
2019-02-20T22:27:17.011Z,81.20
2019-02-20T22:30:12.680Z,82.10
2019-02-20T22:32:55.921Z,81.00
2019-02-20T22:35:49.305Z,81.30
2019-02-20T22:38:44.923Z,81.00
2019-02-20T22:41:22.239Z,80.80
2019-02-20T22:44:13.305Z,81.00
2019-02-20T22:46:45.040Z,81.80
2019-02-20T22:49:19.549Z,82.60
2019-02-20T22:52:00.291Z,83.20
2019-02-20T22:55:05.281Z,83.20
2019-02-20T22:57:43.115Z,84.10
2019-02-20T23:00:41.842Z,83.20
2019-02-20T23:03:22.597Z,83.50
2019-02-20T23:05:56.139Z,83.80
2019-02-20T23:08:37.595Z,83.80
2019-02-20T23:11:29.960Z,83.50
2019-02-20T23:14:07.353Z,83.80
2019-02-20T23:16:35.959Z,83.90
2019-02-20T23:19:04.588Z,84.10
2019-02-20T23:21:33.188Z,84.20
2019-02-20T23:24:01.864Z,84.10
2019-02-20T23:26:30.458Z,84.10
2019-02-20T23:28:59.022Z,84.10
2019-02-20T23:31:27.573Z,84.20
2019-02-20T23:33:56.126Z,84.10
2019-02-20T23:36:24.778Z,84.00
2019-02-20T23:38:53.338Z,84.10
2019-02-20T23:41:21.820Z,84.20
2019-02-20T23:43:50.421Z,84.10
2019-02-20T23:46:18.972Z,84.10
2019-02-20T23:48:47.534Z,83.90
2019-02-20T23:51:16.228Z,84.00
2019-02-20T23:53:46.128Z,84.10
2019-02-20T23:56:17.817Z,84.20
2019-02-20T23:58:46.399Z,84.40
